sensor_id;sensor_type;location;lat;lon;timestamp;temperature;humidity
2130;DHT22;1071;52.544;13.374;2022-10-18T00:00:18;18.80;99.90
2130;DHT22;1071;52.544;13.374;2022-10-18T00:02:46;18.80;99.90
2130;DHT22;1071;52.544;13.374;2022-10-18T00:05:14;18.80;99.90
2130;DHT22;1071;52.544;13.374;2022-10-18T00:07:42;18.80;99.90
2130;DHT22;1071;52.544;13.374;2022-10-18T00:10:09;18.80;99.90
2130;DHT22;1071;52.544;13.374;2022-10-18T00:12:37;18.80;99.90
2130;DHT22;1071;52.544;13.374;2022-10-18T00:15:06;18.80;99.90
2130;DHT22;1071;52.544;13.374;2022-10-18T00:17:35;18.70;99.90
2130;DHT22;1071;52.544;13.374;2022-10-18T00:20:02;18.80;99.90
2130;DHT22;1071;52.544;13.374;2022-10-18T00:22:29;18.70;99.90
2130;DHT22;1071;52.544;13.374;2022-10-18T00:24:58;18.70;99.90
2130;DHT22;1071;52.544;13.374;2022-10-18T00:27:25;18.70;99.90
2130;DHT22;1071;52.544;13.374;2022-10-18T00:29:54;18.70;99.90
2130;DHT22;1071;52.544;13.374;2022-10-18T00:32:22;18.70;99.90
2130;DHT22;1071;52.544;13.374;2022-10-18T00:34:49;18.70;99.90
2130;DHT22;1071;52.544;13.374;2022-10-18T00:37:16;18.80;99.90
2130;DHT22;1071;52.544;13.374;2022-10-18T00:39:43;18.70;99.90
2130;DHT22;1071;52.544;13.374;2022-10-18T00:42:15;18.80;99.90
2130;DHT22;1071;52.544;13.374;2022-10-18T00:45:11;18.80;99.90
2130;DHT22;1071;52.544;13.374;2022-10-18T00:47:38;18.80;99.90
2130;DHT22;1071;52.544;13.374;2022-10-18T00:50:09;18.80;99.90
2130;DHT22;1071;52.544;13.374;2022-10-18T00:52:42;18.80;99.90
2130;DHT22;1071;52.544;13.374;2022-10-18T00:55:11;18.80;99.90
2130;DHT22;1071;52.544;13.374;2022-10-18T00:57:43;18.90;99.90
2130;DHT22;1071;52.544;13.374;2022-10-18T01:00:12;18.90;99.90
2130;DHT22;1071;52.544;13.374;2022-10-18T01:02:41;18.80;99.90
2130;DHT22;1071;52.544;13.374;2022-10-18T01:05:12;18.90;99.90
2130;DHT22;1071;52.544;13.374;2022-10-18T01:10:39;18.90;99.90
2130;DHT22;1071;52.544;13.374;2022-10-18T01:13:25;18.90;99.90
2130;DHT22;1071;52.544;13.374;2022-10-18T01:15:58;18.90;99.90
2130;DHT22;1071;52.544;13.374;2022-10-18T01:18:30;18.90;99.90
2130;DHT22;1071;52.544;13.374;2022-10-18T01:21:09;18.90;99.90
2130;DHT22;1071;52.544;13.374;2022-10-18T01:26:53;18.90;99.90
2130;DHT22;1071;52.544;13.374;2022-10-18T01:29:31;18.90;99.90
2130;DHT22;1071;52.544;13.374;2022-10-18T01:32:08;18.90;99.90
2130;DHT22;1071;52.544;13.374;2022-10-18T01:34:38;18.90;99.90
2130;DHT22;1071;52.544;13.374;2022-10-18T01:37:10;18.90;99.90
2130;DHT22;1071;52.544;13.374;2022-10-18T01:39:41;18.90;99.90
2130;DHT22;1071;52.544;13.374;2022-10-18T01:42:12;18.90;99.90
2130;DHT22;1071;52.544;13.374;2022-10-18T01:44:40;19.00;99.90
2130;DHT22;1071;52.544;13.374;2022-10-18T01:47:10;19.00;99.90
2130;DHT22;1071;52.544;13.374;2022-10-18T01:49:38;19.00;99.90
2130;DHT22;1071;52.544;13.374;2022-10-18T01:52:05;19.00;99.90
2130;DHT22;1071;52.544;13.374;2022-10-18T01:54:35;18.90;99.90
2130;DHT22;1071;52.544;13.374;2022-10-18T01:57:08;19.00;99.90
2130;DHT22;1071;52.544;13.374;2022-10-18T01:59:45;19.00;99.90
2130;DHT22;1071;52.544;13.374;2022-10-18T02:02:27;19.00;99.90
2130;DHT22;1071;52.544;13.374;2022-10-18T02:05:02;19.00;99.90
2130;DHT22;1071;52.544;13.374;2022-10-18T02:07:36;19.00;99.90
2130;DHT22;1071;52.544;13.374;2022-10-18T02:10:09;19.00;99.90
2130;DHT22;1071;52.544;13.374;2022-10-18T02:12:40;19.00;99.90
2130;DHT22;1071;52.544;13.374;2022-10-18T02:15:12;19.00;99.90
2130;DHT22;1071;52.544;13.374;2022-10-18T02:17:43;18.90;99.90
2130;DHT22;1071;52.544;13.374;2022-10-18T02:20:12;19.00;99.90
2130;DHT22;1071;52.544;13.374;2022-10-18T02:22:43;19.00;99.90
2130;DHT22;1071;52.544;13.374;2022-10-18T02:25:16;19.00;99.90
2130;DHT22;1071;52.544;13.374;2022-10-18T02:27:43;18.90;99.90
2130;DHT22;1071;52.544;13.374;2022-10-18T02:30:11;19.00;99.90
2130;DHT22;1071;52.544;13.374;2022-10-18T02:32:45;19.00;99.90
2130;DHT22;1071;52.544;13.374;2022-10-18T02:35:19;19.00;99.90
2130;DHT22;1071;52.544;13.374;2022-10-18T02:37:49;19.00;99.90
2130;DHT22;1071;52.544;13.374;2022-10-18T02:40:17;18.90;99.90
2130;DHT22;1071;52.544;13.374;2022-10-18T02:42:46;18.90;99.90
2130;DHT22;1071;52.544;13.374;2022-10-18T02:45:14;18.90;99.90
2130;DHT22;1071;52.544;13.374;2022-10-18T02:47:43;18.90;99.90
2130;DHT22;1071;52.544;13.374;2022-10-18T02:50:10;18.90;99.90
2130;DHT22;1071;52.544;13.374;2022-10-18T02:52:37;18.90;99.90
2130;DHT22;1071;52.544;13.374;2022-10-18T02:55:06;18.90;99.90
2130;DHT22;1071;52.544;13.374;2022-10-18T02:57:33;18.90;99.90
2130;DHT22;1071;52.544;13.374;2022-10-18T03:00:01;18.90;99.90
2130;DHT22;1071;52.544;13.374;2022-10-18T03:02:28;18.90;99.90
2130;DHT22;1071;52.544;13.374;2022-10-18T03:04:57;18.90;99.90
2130;DHT22;1071;52.544;13.374;2022-10-18T03:07:23;18.90;99.90
2130;DHT22;1071;52.544;13.374;2022-10-18T03:09:50;18.90;99.90
2130;DHT22;1071;52.544;13.374;2022-10-18T03:12:17;18.90;99.90
2130;DHT22;1071;52.544;13.374;2022-10-18T03:14:44;18.90;99.90
2130;DHT22;1071;52.544;13.374;2022-10-18T03:17:14;18.90;99.90
2130;DHT22;1071;52.544;13.374;2022-10-18T03:19:41;18.90;99.90
2130;DHT22;1071;52.544;13.374;2022-10-18T03:22:10;18.90;99.90
2130;DHT22;1071;52.544;13.374;2022-10-18T03:24:37;18.90;99.90
2130;DHT22;1071;52.544;13.374;2022-10-18T03:27:04;18.90;99.90
2130;DHT22;1071;52.544;13.374;2022-10-18T03:29:34;18.90;99.90
2130;DHT22;1071;52.544;13.374;2022-10-18T03:32:01;18.90;99.90
2130;DHT22;1071;52.544;13.374;2022-10-18T03:34:28;18.90;99.90
2130;DHT22;1071;52.544;13.374;2022-10-18T03:36:54;18.80;99.90
2130;DHT22;1071;52.544;13.374;2022-10-18T03:39:23;18.80;99.90
2130;DHT22;1071;52.544;13.374;2022-10-18T03:41:50;18.80;99.90
2130;DHT22;1071;52.544;13.374;2022-10-18T03:44:17;18.80;99.90
2130;DHT22;1071;52.544;13.374;2022-10-18T03:46:45;18.80;99.90
2130;DHT22;1071;52.544;13.374;2022-10-18T03:49:12;18.80;99.90
2130;DHT22;1071;52.544;13.374;2022-10-18T03:51:39;18.80;99.90
2130;DHT22;1071;52.544;13.374;2022-10-18T03:54:06;18.80;99.90
2130;DHT22;1071;52.544;13.374;2022-10-18T03:56:34;18.80;99.90
2130;DHT22;1071;52.544;13.374;2022-10-18T03:59:01;18.80;99.90
2130;DHT22;1071;52.544;13.374;2022-10-18T04:01:30;18.80;99.90
2130;DHT22;1071;52.544;13.374;2022-10-18T04:03:58;18.70;99.90
2130;DHT22;1071;52.544;13.374;2022-10-18T04:06:25;18.70;99.90
2130;DHT22;1071;52.544;13.374;2022-10-18T04:08:54;18.70;99.90
2130;DHT22;1071;52.544;13.374;2022-10-18T04:11:22;18.70;99.90
2130;DHT22;1071;52.544;13.374;2022-10-18T04:13:51;18.70;99.90
2130;DHT22;1071;52.544;13.374;2022-10-18T04:16:18;18.60;99.90
2130;DHT22;1071;52.544;13.374;2022-10-18T04:18:45;18.60;99.90
2130;DHT22;1071;52.544;13.374;2022-10-18T04:21:12;18.60;99.90
2130;DHT22;1071;52.544;13.374;2022-10-18T04:23:39;18.60;99.90
2130;DHT22;1071;52.544;13.374;2022-10-18T04:26:06;18.50;99.90
2130;DHT22;1071;52.544;13.374;2022-10-18T04:28:34;18.50;99.90
2130;DHT22;1071;52.544;13.374;2022-10-18T04:31:06;18.50;99.90
2130;DHT22;1071;52.544;13.374;2022-10-18T04:33:33;18.50;99.90
2130;DHT22;1071;52.544;13.374;2022-10-18T04:36:00;18.50;99.90
2130;DHT22;1071;52.544;13.374;2022-10-18T04:38:27;18.50;99.90
2130;DHT22;1071;52.544;13.374;2022-10-18T04:40:54;18.50;99.90
2130;DHT22;1071;52.544;13.374;2022-10-18T04:43:21;18.40;99.90
2130;DHT22;1071;52.544;13.374;2022-10-18T04:45:48;18.40;99.90
2130;DHT22;1071;52.544;13.374;2022-10-18T04:48:17;18.40;99.90
2130;DHT22;1071;52.544;13.374;2022-10-18T04:50:47;18.40;99.90
2130;DHT22;1071;52.544;13.374;2022-10-18T04:53:14;18.40;99.90
2130;DHT22;1071;52.544;13.374;2022-10-18T04:55:43;18.30;99.90
2130;DHT22;1071;52.544;13.374;2022-10-18T04:58:13;18.30;99.90
2130;DHT22;1071;52.544;13.374;2022-10-18T05:00:40;18.30;99.90
2130;DHT22;1071;52.544;13.374;2022-10-18T05:03:08;18.30;99.90
2130;DHT22;1071;52.544;13.374;2022-10-18T05:05:36;18.30;99.90
2130;DHT22;1071;52.544;13.374;2022-10-18T05:08:07;18.30;99.90
2130;DHT22;1071;52.544;13.374;2022-10-18T05:10:34;18.20;99.90
2130;DHT22;1071;52.544;13.374;2022-10-18T05:13:02;18.20;99.90
2130;DHT22;1071;52.544;13.374;2022-10-18T05:15:29;18.20;99.90
2130;DHT22;1071;52.544;13.374;2022-10-18T05:17:57;18.20;99.90
2130;DHT22;1071;52.544;13.374;2022-10-18T05:20:24;18.20;99.90
2130;DHT22;1071;52.544;13.374;2022-10-18T05:22:53;18.20;99.90
2130;DHT22;1071;52.544;13.374;2022-10-18T05:25:20;18.20;99.90
2130;DHT22;1071;52.544;13.374;2022-10-18T05:27:49;18.20;99.90
2130;DHT22;1071;52.544;13.374;2022-10-18T05:30:16;18.10;99.90
2130;DHT22;1071;52.544;13.374;2022-10-18T05:32:43;18.10;99.90
2130;DHT22;1071;52.544;13.374;2022-10-18T05:35:10;18.10;99.90
2130;DHT22;1071;52.544;13.374;2022-10-18T05:37:37;18.10;99.90
2130;DHT22;1071;52.544;13.374;2022-10-18T05:40:06;18.10;99.90
2130;DHT22;1071;52.544;13.374;2022-10-18T05:42:57;18.10;99.90
2130;DHT22;1071;52.544;13.374;2022-10-18T05:45:24;18.10;99.90
2130;DHT22;1071;52.544;13.374;2022-10-18T05:47:51;18.10;99.90
2130;DHT22;1071;52.544;13.374;2022-10-18T05:50:20;18.10;99.90
2130;DHT22;1071;52.544;13.374;2022-10-18T05:52:48;18.00;99.90
2130;DHT22;1071;52.544;13.374;2022-10-18T05:55:16;18.00;99.90
2130;DHT22;1071;52.544;13.374;2022-10-18T06:00:52;18.00;99.90
2130;DHT22;1071;52.544;13.374;2022-10-18T06:03:19;18.00;99.90
2130;DHT22;1071;52.544;13.374;2022-10-18T06:05:46;18.00;99.90
2130;DHT22;1071;52.544;13.374;2022-10-18T06:08:14;18.00;99.90
2130;DHT22;1071;52.544;13.374;2022-10-18T06:10:43;18.00;99.90
2130;DHT22;1071;52.544;13.374;2022-10-18T06:13:10;18.00;99.90
2130;DHT22;1071;52.544;13.374;2022-10-18T06:15:37;18.00;99.90
2130;DHT22;1071;52.544;13.374;2022-10-18T06:18:04;18.00;99.90
2130;DHT22;1071;52.544;13.374;2022-10-18T06:20:31;18.00;99.90
2130;DHT22;1071;52.544;13.374;2022-10-18T06:22:58;18.00;99.90
2130;DHT22;1071;52.544;13.374;2022-10-18T06:25:25;18.00;99.90
2130;DHT22;1071;52.544;13.374;2022-10-18T06:27:53;18.00;99.90
2130;DHT22;1071;52.544;13.374;2022-10-18T06:30:26;17.90;99.90
2130;DHT22;1071;52.544;13.374;2022-10-18T06:32:57;17.90;99.90
2130;DHT22;1071;52.544;13.374;2022-10-18T06:35:24;17.90;99.90
2130;DHT22;1071;52.544;13.374;2022-10-18T06:37:52;17.90;99.90
2130;DHT22;1071;52.544;13.374;2022-10-18T06:40:19;17.90;99.90
2130;DHT22;1071;52.544;13.374;2022-10-18T06:42:46;17.90;99.90
2130;DHT22;1071;52.544;13.374;2022-10-18T06:45:15;17.90;99.90
2130;DHT22;1071;52.544;13.374;2022-10-18T06:47:46;17.90;99.90
2130;DHT22;1071;52.544;13.374;2022-10-18T06:50:14;17.90;99.90
2130;DHT22;1071;52.544;13.374;2022-10-18T06:52:41;17.90;99.90
2130;DHT22;1071;52.544;13.374;2022-10-18T06:55:08;17.90;99.90
2130;DHT22;1071;52.544;13.374;2022-10-18T06:57:35;17.90;99.90
2130;DHT22;1071;52.544;13.374;2022-10-18T07:03:24;17.90;99.90
2130;DHT22;1071;52.544;13.374;2022-10-18T07:05:51;17.90;99.90
2130;DHT22;1071;52.544;13.374;2022-10-18T07:08:18;17.90;99.90
2130;DHT22;1071;52.544;13.374;2022-10-18T07:10:50;17.90;99.90
2130;DHT22;1071;52.544;13.374;2022-10-18T07:13:17;17.90;99.90
2130;DHT22;1071;52.544;13.374;2022-10-18T07:15:47;17.90;99.90
2130;DHT22;1071;52.544;13.374;2022-10-18T07:18:21;17.90;99.90
2130;DHT22;1071;52.544;13.374;2022-10-18T07:20:50;17.90;99.90
2130;DHT22;1071;52.544;13.374;2022-10-18T07:23:27;17.90;99.90
2130;DHT22;1071;52.544;13.374;2022-10-18T07:25:55;17.90;99.90
2130;DHT22;1071;52.544;13.374;2022-10-18T07:28:22;17.90;99.90
2130;DHT22;1071;52.544;13.374;2022-10-18T07:30:49;17.90;99.90
2130;DHT22;1071;52.544;13.374;2022-10-18T07:33:16;17.90;99.90
2130;DHT22;1071;52.544;13.374;2022-10-18T07:35:45;17.90;99.90
2130;DHT22;1071;52.544;13.374;2022-10-18T07:38:13;17.90;99.90
2130;DHT22;1071;52.544;13.374;2022-10-18T07:40:40;17.90;99.90
2130;DHT22;1071;52.544;13.374;2022-10-18T07:43:07;17.90;99.90
2130;DHT22;1071;52.544;13.374;2022-10-18T07:45:34;17.90;99.90
2130;DHT22;1071;52.544;13.374;2022-10-18T07:48:03;17.90;99.90
2130;DHT22;1071;52.544;13.374;2022-10-18T07:50:30;17.90;99.90
2130;DHT22;1071;52.544;13.374;2022-10-18T07:53:09;17.90;99.90
2130;DHT22;1071;52.544;13.374;2022-10-18T07:55:38;17.90;99.90
2130;DHT22;1071;52.544;13.374;2022-10-18T07:58:09;17.90;99.90
2130;DHT22;1071;52.544;13.374;2022-10-18T08:00:36;18.00;99.90
2130;DHT22;1071;52.544;13.374;2022-10-18T08:03:03;17.90;99.90
2130;DHT22;1071;52.544;13.374;2022-10-18T08:05:30;18.00;99.90
2130;DHT22;1071;52.544;13.374;2022-10-18T08:07:58;18.00;99.90
2130;DHT22;1071;52.544;13.374;2022-10-18T08:10:26;18.00;99.90
2130;DHT22;1071;52.544;13.374;2022-10-18T08:12:54;17.90;99.90
2130;DHT22;1071;52.544;13.374;2022-10-18T08:15:21;17.90;99.90
2130;DHT22;1071;52.544;13.374;2022-10-18T08:17:50;17.90;99.90
2130;DHT22;1071;52.544;13.374;2022-10-18T08:20:17;17.90;99.90
2130;DHT22;1071;52.544;13.374;2022-10-18T08:22:44;17.90;99.90
2130;DHT22;1071;52.544;13.374;2022-10-18T08:25:11;17.90;99.90
2130;DHT22;1071;52.544;13.374;2022-10-18T08:27:38;17.90;99.90
2130;DHT22;1071;52.544;13.374;2022-10-18T08:30:12;17.90;99.90
2130;DHT22;1071;52.544;13.374;2022-10-18T08:32:40;17.90;99.90
2130;DHT22;1071;52.544;13.374;2022-10-18T08:35:10;17.90;99.90
2130;DHT22;1071;52.544;13.374;2022-10-18T08:38:06;17.90;99.90
2130;DHT22;1071;52.544;13.374;2022-10-18T08:41:15;17.90;99.90
2130;DHT22;1071;52.544;13.374;2022-10-18T08:43:47;17.90;99.90
2130;DHT22;1071;52.544;13.374;2022-10-18T08:46:20;17.80;99.90
2130;DHT22;1071;52.544;13.374;2022-10-18T08:48:59;17.80;99.90
2130;DHT22;1071;52.544;13.374;2022-10-18T08:51:30;17.80;99.90
2130;DHT22;1071;52.544;13.374;2022-10-18T08:54:06;17.80;99.90
2130;DHT22;1071;52.544;13.374;2022-10-18T08:56:37;17.80;99.90
2130;DHT22;1071;52.544;13.374;2022-10-18T08:59:11;17.80;99.90
2130;DHT22;1071;52.544;13.374;2022-10-18T09:01:49;17.80;99.90
2130;DHT22;1071;52.544;13.374;2022-10-18T09:04:36;17.80;99.90
2130;DHT22;1071;52.544;13.374;2022-10-18T09:10:22;17.80;99.90
2130;DHT22;1071;52.544;13.374;2022-10-18T09:13:09;17.80;99.90
2130;DHT22;1071;52.544;13.374;2022-10-18T09:15:55;17.80;99.90
2130;DHT22;1071;52.544;13.374;2022-10-18T09:18:38;17.80;99.90
2130;DHT22;1071;52.544;13.374;2022-10-18T09:21:16;17.80;99.90
2130;DHT22;1071;52.544;13.374;2022-10-18T09:23:47;17.70;99.90
2130;DHT22;1071;52.544;13.374;2022-10-18T09:26:17;17.80;99.90
2130;DHT22;1071;52.544;13.374;2022-10-18T09:29:01;17.80;99.90
2130;DHT22;1071;52.544;13.374;2022-10-18T09:31:39;17.80;99.90
2130;DHT22;1071;52.544;13.374;2022-10-18T09:34:23;17.70;99.90
2130;DHT22;1071;52.544;13.374;2022-10-18T09:36:55;17.70;99.90
2130;DHT22;1071;52.544;13.374;2022-10-18T09:39:27;17.70;99.90
2130;DHT22;1071;52.544;13.374;2022-10-18T09:41:57;17.70;99.90
2130;DHT22;1071;52.544;13.374;2022-10-18T09:44:28;17.70;99.90
2130;DHT22;1071;52.544;13.374;2022-10-18T09:46:59;17.70;99.90
2130;DHT22;1071;52.544;13.374;2022-10-18T09:49:39;17.70;99.90
2130;DHT22;1071;52.544;13.374;2022-10-18T09:52:16;17.80;99.90
2130;DHT22;1071;52.544;13.374;2022-10-18T09:54:50;17.70;99.90
2130;DHT22;1071;52.544;13.374;2022-10-18T09:57:24;17.70;99.90
2130;DHT22;1071;52.544;13.374;2022-10-18T09:59:52;17.70;99.90
2130;DHT22;1071;52.544;13.374;2022-10-18T10:02:22;17.70;99.90
2130;DHT22;1071;52.544;13.374;2022-10-18T10:08:25;17.70;99.90
2130;DHT22;1071;52.544;13.374;2022-10-18T10:13:36;17.70;99.90
2130;DHT22;1071;52.544;13.374;2022-10-18T10:15:20;17.70;99.90
2130;DHT22;1071;52.544;13.374;2022-10-18T10:38:41;17.60;99.90
2130;DHT22;1071;52.544;13.374;2022-10-18T10:41:22;17.60;99.90
2130;DHT22;1071;52.544;13.374;2022-10-18T10:43:56;17.60;99.90
2130;DHT22;1071;52.544;13.374;2022-10-18T10:46:35;17.60;99.90
2130;DHT22;1071;52.544;13.374;2022-10-18T10:49:38;17.60;99.90
2130;DHT22;1071;52.544;13.374;2022-10-18T10:52:27;17.60;99.90
2130;DHT22;1071;52.544;13.374;2022-10-18T10:54:57;17.60;99.90
2130;DHT22;1071;52.544;13.374;2022-10-18T10:57:27;17.60;99.90
2130;DHT22;1071;52.544;13.374;2022-10-18T10:59:56;17.60;99.90
2130;DHT22;1071;52.544;13.374;2022-10-18T11:02:28;17.60;99.90
2130;DHT22;1071;52.544;13.374;2022-10-18T11:04:56;17.70;99.90
2130;DHT22;1071;52.544;13.374;2022-10-18T11:07:43;17.70;99.90
2130;DHT22;1071;52.544;13.374;2022-10-18T11:10:14;17.70;99.90
2130;DHT22;1071;52.544;13.374;2022-10-18T11:12:45;17.70;99.90
2130;DHT22;1071;52.544;13.374;2022-10-18T11:15:19;17.70;99.90
2130;DHT22;1071;52.544;13.374;2022-10-18T11:18:00;17.70;99.90
2130;DHT22;1071;52.544;13.374;2022-10-18T11:20:33;17.70;99.90
2130;DHT22;1071;52.544;13.374;2022-10-18T11:23:05;17.70;99.90
2130;DHT22;1071;52.544;13.374;2022-10-18T11:25:59;17.70;99.90
2130;DHT22;1071;52.544;13.374;2022-10-18T11:28:54;17.70;99.90
2130;DHT22;1071;52.544;13.374;2022-10-18T11:31:30;17.70;99.90
2130;DHT22;1071;52.544;13.374;2022-10-18T11:34:16;17.70;99.90
2130;DHT22;1071;52.544;13.374;2022-10-18T11:36:52;17.60;99.90
2130;DHT22;1071;52.544;13.374;2022-10-18T11:39:28;17.70;99.90
2130;DHT22;1071;52.544;13.374;2022-10-18T11:42:02;17.70;99.90
2130;DHT22;1071;52.544;13.374;2022-10-18T11:47:37;17.70;99.90
2130;DHT22;1071;52.544;13.374;2022-10-18T11:50:17;17.70;99.90
2130;DHT22;1071;52.544;13.374;2022-10-18T11:53:01;17.70;99.90
2130;DHT22;1071;52.544;13.374;2022-10-18T11:55:42;17.70;99.90
2130;DHT22;1071;52.544;13.374;2022-10-18T11:58:23;17.70;99.90
2130;DHT22;1071;52.544;13.374;2022-10-18T12:01:02;17.80;99.90
2130;DHT22;1071;52.544;13.374;2022-10-18T12:03:44;17.80;99.90
2130;DHT22;1071;52.544;13.374;2022-10-18T12:06:19;17.80;99.90
2130;DHT22;1071;52.544;13.374;2022-10-18T12:08:49;17.80;99.90
2130;DHT22;1071;52.544;13.374;2022-10-18T12:11:23;17.80;99.90
2130;DHT22;1071;52.544;13.374;2022-10-18T12:13:54;17.80;99.90
2130;DHT22;1071;52.544;13.374;2022-10-18T12:16:24;17.80;99.90
2130;DHT22;1071;52.544;13.374;2022-10-18T12:18:55;17.80;99.90
2130;DHT22;1071;52.544;13.374;2022-10-18T12:21:26;17.90;99.90
2130;DHT22;1071;52.544;13.374;2022-10-18T12:23:56;17.90;99.90
2130;DHT22;1071;52.544;13.374;2022-10-18T12:26:26;17.90;99.90
2130;DHT22;1071;52.544;13.374;2022-10-18T12:29:04;17.90;99.90
2130;DHT22;1071;52.544;13.374;2022-10-18T12:31:36;17.90;99.90
2130;DHT22;1071;52.544;13.374;2022-10-18T12:34:15;17.90;99.90
2130;DHT22;1071;52.544;13.374;2022-10-18T12:39:42;17.90;99.90
2130;DHT22;1071;52.544;13.374;2022-10-18T12:42:18;17.90;99.90
2130;DHT22;1071;52.544;13.374;2022-10-18T12:44:46;17.90;99.90
2130;DHT22;1071;52.544;13.374;2022-10-18T12:47:20;17.90;99.90
2130;DHT22;1071;52.544;13.374;2022-10-18T12:49:55;17.90;99.90
2130;DHT22;1071;52.544;13.374;2022-10-18T12:52:25;18.00;99.90
2130;DHT22;1071;52.544;13.374;2022-10-18T12:55:25;18.00;99.90
2130;DHT22;1071;52.544;13.374;2022-10-18T12:58:20;18.00;99.90
2130;DHT22;1071;52.544;13.374;2022-10-18T13:00:52;18.00;99.90
2130;DHT22;1071;52.544;13.374;2022-10-18T13:03:40;18.00;99.90
2130;DHT22;1071;52.544;13.374;2022-10-18T13:06:16;18.10;99.90
2130;DHT22;1071;52.544;13.374;2022-10-18T13:08:43;18.10;99.90
2130;DHT22;1071;52.544;13.374;2022-10-18T13:11:32;18.10;99.90
2130;DHT22;1071;52.544;13.374;2022-10-18T13:17:11;18.10;99.90
2130;DHT22;1071;52.544;13.374;2022-10-18T13:19:46;18.20;99.90
2130;DHT22;1071;52.544;13.374;2022-10-18T13:22:58;18.10;99.90
2130;DHT22;1071;52.544;13.374;2022-10-18T13:25:30;18.20;99.90
2130;DHT22;1071;52.544;13.374;2022-10-18T13:28:05;18.20;99.90
2130;DHT22;1071;52.544;13.374;2022-10-18T13:30:50;18.20;99.90
2130;DHT22;1071;52.544;13.374;2022-10-18T13:33:30;18.20;99.90
2130;DHT22;1071;52.544;13.374;2022-10-18T13:35:58;18.30;99.90
2130;DHT22;1071;52.544;13.374;2022-10-18T13:38:44;18.30;99.90
2130;DHT22;1071;52.544;13.374;2022-10-18T13:41:15;18.30;99.90
2130;DHT22;1071;52.544;13.374;2022-10-18T13:43:58;18.30;99.90
2130;DHT22;1071;52.544;13.374;2022-10-18T13:49:47;18.30;99.90
2130;DHT22;1071;52.544;13.374;2022-10-18T13:52:23;18.30;99.90
2130;DHT22;1071;52.544;13.374;2022-10-18T13:55:01;18.40;99.90
2130;DHT22;1071;52.544;13.374;2022-10-18T13:57:42;18.40;99.90
2130;DHT22;1071;52.544;13.374;2022-10-18T14:00:29;18.40;99.90
2130;DHT22;1071;52.544;13.374;2022-10-18T14:06:01;18.40;99.90
2130;DHT22;1071;52.544;13.374;2022-10-18T14:08:34;18.40;99.90
2130;DHT22;1071;52.544;13.374;2022-10-18T14:11:04;18.30;99.90
2130;DHT22;1071;52.544;13.374;2022-10-18T14:13:37;18.40;99.90
2130;DHT22;1071;52.544;13.374;2022-10-18T14:16:22;18.30;99.90
2130;DHT22;1071;52.544;13.374;2022-10-18T14:18:59;18.30;99.90
2130;DHT22;1071;52.544;13.374;2022-10-18T14:21:35;18.40;99.90
2130;DHT22;1071;52.544;13.374;2022-10-18T14:24:12;18.40;99.90
2130;DHT22;1071;52.544;13.374;2022-10-18T14:26:41;18.40;99.90
2130;DHT22;1071;52.544;13.374;2022-10-18T14:29:15;18.40;99.90
2130;DHT22;1071;52.544;13.374;2022-10-18T14:31:51;18.40;99.90
2130;DHT22;1071;52.544;13.374;2022-10-18T14:34:19;18.40;99.90
2130;DHT22;1071;52.544;13.374;2022-10-18T14:36:51;18.40;99.90
2130;DHT22;1071;52.544;13.374;2022-10-18T14:39:24;18.30;99.90
2130;DHT22;1071;52.544;13.374;2022-10-18T14:41:54;18.30;99.90
2130;DHT22;1071;52.544;13.374;2022-10-18T14:44:25;18.30;99.90
2130;DHT22;1071;52.544;13.374;2022-10-18T14:46:58;18.20;99.90
2130;DHT22;1071;52.544;13.374;2022-10-18T14:49:29;18.10;99.90
2130;DHT22;1071;52.544;13.374;2022-10-18T14:51:58;18.10;99.90
2130;DHT22;1071;52.544;13.374;2022-10-18T14:54:29;18.10;99.90
2130;DHT22;1071;52.544;13.374;2022-10-18T14:57:01;18.10;99.90
2130;DHT22;1071;52.544;13.374;2022-10-18T14:59:32;18.10;99.90
2130;DHT22;1071;52.544;13.374;2022-10-18T15:02:09;18.00;99.90
2130;DHT22;1071;52.544;13.374;2022-10-18T15:04:38;18.00;99.90
2130;DHT22;1071;52.544;13.374;2022-10-18T15:07:12;18.00;99.90
2130;DHT22;1071;52.544;13.374;2022-10-18T15:09:44;17.90;99.90
2130;DHT22;1071;52.544;13.374;2022-10-18T15:12:14;18.00;99.90
2130;DHT22;1071;52.544;13.374;2022-10-18T15:14:49;17.90;99.90
2130;DHT22;1071;52.544;13.374;2022-10-18T15:17:21;17.90;99.90
2130;DHT22;1071;52.544;13.374;2022-10-18T15:19:56;17.90;99.90
2130;DHT22;1071;52.544;13.374;2022-10-18T15:22:26;17.90;99.90
2130;DHT22;1071;52.544;13.374;2022-10-18T15:25:09;17.90;99.90
2130;DHT22;1071;52.544;13.374;2022-10-18T15:27:39;17.80;99.90
2130;DHT22;1071;52.544;13.374;2022-10-18T15:30:15;17.80;99.90
2130;DHT22;1071;52.544;13.374;2022-10-18T15:32:47;17.80;99.90
2130;DHT22;1071;52.544;13.374;2022-10-18T15:35:16;17.70;99.90
2130;DHT22;1071;52.544;13.374;2022-10-18T15:37:46;17.70;99.90
2130;DHT22;1071;52.544;13.374;2022-10-18T15:40:16;17.70;99.90
2130;DHT22;1071;52.544;13.374;2022-10-18T15:43:32;17.70;99.90
2130;DHT22;1071;52.544;13.374;2022-10-18T15:45:56;17.70;99.90
2130;DHT22;1071;52.544;13.374;2022-10-18T15:48:36;17.60;99.90
2130;DHT22;1071;52.544;13.374;2022-10-18T15:51:06;17.60;99.90
2130;DHT22;1071;52.544;13.374;2022-10-18T15:53:49;17.50;99.90
2130;DHT22;1071;52.544;13.374;2022-10-18T15:56:30;17.50;99.90
2130;DHT22;1071;52.544;13.374;2022-10-18T15:58:59;17.50;99.90
2130;DHT22;1071;52.544;13.374;2022-10-18T16:01:33;17.40;99.90
2130;DHT22;1071;52.544;13.374;2022-10-18T16:04:04;17.40;99.90
2130;DHT22;1071;52.544;13.374;2022-10-18T16:06:36;17.40;99.90
2130;DHT22;1071;52.544;13.374;2022-10-18T16:09:04;17.30;99.90
2130;DHT22;1071;52.544;13.374;2022-10-18T16:11:34;17.30;99.90
2130;DHT22;1071;52.544;13.374;2022-10-18T16:14:05;17.30;99.90
2130;DHT22;1071;52.544;13.374;2022-10-18T16:16:32;17.30;99.90
2130;DHT22;1071;52.544;13.374;2022-10-18T16:19:00;17.20;99.90
2130;DHT22;1071;52.544;13.374;2022-10-18T16:21:30;17.20;99.90
2130;DHT22;1071;52.544;13.374;2022-10-18T16:23:57;17.20;99.90
2130;DHT22;1071;52.544;13.374;2022-10-18T16:26:31;17.10;99.90
2130;DHT22;1071;52.544;13.374;2022-10-18T16:29:20;17.10;99.90
2130;DHT22;1071;52.544;13.374;2022-10-18T16:31:59;17.10;99.90
2130;DHT22;1071;52.544;13.374;2022-10-18T16:34:26;17.00;99.90
2130;DHT22;1071;52.544;13.374;2022-10-18T16:36:55;17.00;99.90
2130;DHT22;1071;52.544;13.374;2022-10-18T16:39:22;17.00;99.90
2130;DHT22;1071;52.544;13.374;2022-10-18T16:42:06;17.00;99.90
2130;DHT22;1071;52.544;13.374;2022-10-18T16:45:09;16.90;99.90
2130;DHT22;1071;52.544;13.374;2022-10-18T16:54:35;16.80;99.90
2130;DHT22;1071;52.544;13.374;2022-10-18T16:57:02;16.80;99.90
2130;DHT22;1071;52.544;13.374;2022-10-18T16:59:30;16.70;99.90
2130;DHT22;1071;52.544;13.374;2022-10-18T17:01:57;16.70;99.90
2130;DHT22;1071;52.544;13.374;2022-10-18T17:04:30;16.70;99.90
2130;DHT22;1071;52.544;13.374;2022-10-18T17:06:57;16.70;99.90
2130;DHT22;1071;52.544;13.374;2022-10-18T17:09:24;16.70;99.90
2130;DHT22;1071;52.544;13.374;2022-10-18T17:11:52;16.60;99.90
2130;DHT22;1071;52.544;13.374;2022-10-18T17:14:19;16.60;99.90
2130;DHT22;1071;52.544;13.374;2022-10-18T17:17:10;16.60;99.90
2130;DHT22;1071;52.544;13.374;2022-10-18T17:19:39;16.60;99.90